Joao Correia, Brazil
Current Conditions -  °F | °C
As of 7:00 AM on Saturday 01 Nov 2014 (Local Time) from SBQV Reporting Station
Broken Clouds Broken Clouds  
Wind Chill: 68°   Ceiling: 1300
Heat Index: 68°   Visibility: 6mi
Dew Point: 63°   Wind: 9mph
Humidity: 83%   Direction: 90°E
Pressure: 30.18"   Gusts: NA
Location:  13.27°S, 41.61°W
Report Text: SBQV 011000Z 09008KT 9999 BKN013 20/17 Q1022
Loading
Personal Weather Stations






























Interactive Weather Map
Tropical Storm Tracking
New forecast layout! Learn more

10-Day Weather Forecast

Advertisements
Track Severe Weather on mobile